Time;durP1;ratioP1;P1;durP2;ratioP2;P2;SDS_P1;SDS_P2;PMS_P1;PMS_P2;Temp;Humidity;BMP_temperature;BMP_pressure;BME280_temperature;BME280_humidity;BME280_pressure;Samples;Min_cycle;Max_cycle;Signal;HPM_P1;HPM_P2
2023/09/30 00:00:20;;;;;;;13.53;4.17;;;;;;;;;;4951952;28;20226;-73
2023/09/30 00:02:45;;;;;;;9.20;4.10;;;;;;;;;;4967216;28;20231;-73
2023/09/30 00:05:19;;;;;;;12.93;4.20;;;;;;;;;;4960706;28;20230;-73
2023/09/30 00:07:47;;;;;;;7.93;4.27;;;;;;;;;;4960434;28;20681;-73
2023/09/30 00:10:14;;;;;;;9.03;3.93;;;;;;;;;;4977033;28;20647;-73
2023/09/30 00:12:40;;;;;;;12.03;4.23;;;;;;;;;;4951974;28;20580;-73
2023/09/30 00:15:05;;;;;;;11.43;4.60;;;;;;;;;;4966652;28;20229;-74
2023/09/30 00:17:36;;;;;;;13.00;4.60;;;;;;;;;;4974237;28;20251;-73
2023/09/30 00:20:04;;;;;;;12.60;4.60;;;;;;;;;;4967812;28;20238;-73
2023/09/30 00:22:32;;;;;;;20.47;5.23;;;;;;;;;;4960223;28;20675;-73
2023/09/30 00:25:06;;;;;;;13.17;4.57;;;;;;;;;;4955559;28;20230;-73
2023/09/30 00:27:34;;;;;;;13.93;4.90;;;;;;;;;;4983931;28;20852;-73
2023/09/30 00:29:59;;;;;;;11.77;4.73;;;;;;;;;;4967163;28;20654;-73
2023/09/30 00:32:25;;;;;;;11.70;4.33;;;;;;;;;;4972890;28;20239;-73
2023/09/30 00:34:52;;;;;;;15.40;5.10;;;;;;;;;;4968967;28;20288;-73
2023/09/30 00:37:22;;;;;;;9.10;4.57;;;;;;;;;;4985911;28;20241;-73
2023/09/30 00:39:47;;;;;;;12.70;5.43;;;;;;;;;;4967671;28;20658;-73
2023/09/30 00:42:13;;;;;;;9.27;4.17;;;;;;;;;;4993060;28;20229;-73
2023/09/30 00:44:41;;;;;;;11.83;4.77;;;;;;;;;;4980100;28;20226;-74
2023/09/30 00:47:08;;;;;;;9.70;4.50;;;;;;;;;;4977636;28;20715;-73
2023/09/30 00:49:36;;;;;;;13.53;5.00;;;;;;;;;;4961751;28;20595;-73
2023/09/30 00:52:04;;;;;;;13.43;5.13;;;;;;;;;;4942629;28;20225;-74
2023/09/30 00:54:30;;;;;;;10.23;4.80;;;;;;;;;;4992452;28;20229;-74
2023/09/30 00:57:01;;;;;;;19.73;5.00;;;;;;;;;;4986057;28;20222;-73
2023/09/30 00:59:29;;;;;;;13.80;5.17;;;;;;;;;;4986720;28;20217;-73
2023/09/30 01:01:57;;;;;;;9.70;4.63;;;;;;;;;;4978761;28;20229;-73
2023/09/30 01:04:26;;;;;;;8.57;4.77;;;;;;;;;;4978417;28;20237;-74
2023/09/30 01:06:53;;;;;;;11.47;4.67;;;;;;;;;;4985543;28;20275;-74
2023/09/30 01:09:20;;;;;;;15.13;5.10;;;;;;;;;;4989606;28;20217;-74
2023/09/30 01:11:48;;;;;;;16.03;5.63;;;;;;;;;;4970870;28;20210;-73
2023/09/30 01:14:29;;;;;;;16.17;5.17;;;;;;;;;;4984557;28;20225;-74
2023/09/30 01:17:08;;;;;;;10.93;4.90;;;;;;;;;;4961073;28;20742;-74
2023/09/30 01:19:36;;;;;;;11.20;4.37;;;;;;;;;;4976873;28;20221;-73
2023/09/30 01:22:05;;;;;;;10.83;5.00;;;;;;;;;;4977968;28;20210;-74
2023/09/30 01:24:43;;;;;;;9.77;4.97;;;;;;;;;;4974394;28;20220;-73
2023/09/30 01:27:09;;;;;;;10.53;4.80;;;;;;;;;;4978550;28;20228;-72
2023/09/30 01:29:38;;;;;;;9.17;4.37;;;;;;;;;;4971911;28;21063;-73
2023/09/30 01:32:09;;;;;;;9.67;4.73;;;;;;;;;;4985584;28;20258;-73
2023/09/30 01:34:35;;;;;;;10.67;5.07;;;;;;;;;;4981763;28;20237;-73
2023/09/30 01:37:04;;;;;;;8.70;4.20;;;;;;;;;;4975987;28;20321;-74
2023/09/30 01:39:33;;;;;;;13.10;5.60;;;;;;;;;;4969397;28;20229;-73
2023/09/30 01:42:01;;;;;;;10.80;4.97;;;;;;;;;;4981767;28;20226;-73
2023/09/30 01:44:34;;;;;;;10.00;4.60;;;;;;;;;;4991478;28;20738;-73
2023/09/30 01:47:03;;;;;;;10.70;5.67;;;;;;;;;;4937954;28;20229;-74
2023/09/30 01:49:31;;;;;;;15.67;5.97;;;;;;;;;;4960883;28;20225;-73
2023/09/30 01:51:58;;;;;;;15.23;5.67;;;;;;;;;;4961915;28;20229;-74
2023/09/30 01:54:24;;;;;;;9.50;5.20;;;;;;;;;;4962549;28;20230;-72
2023/09/30 01:56:54;;;;;;;14.53;5.37;;;;;;;;;;4961409;28;20230;-73
2023/09/30 01:59:21;;;;;;;11.13;4.83;;;;;;;;;;4969023;28;20787;-73
2023/09/30 02:01:48;;;;;;;14.07;5.23;;;;;;;;;;4984420;28;20229;-73
2023/09/30 02:04:17;;;;;;;11.93;5.67;;;;;;;;;;4981462;28;20279;-73
2023/09/30 02:06:42;;;;;;;8.23;4.50;;;;;;;;;;4952601;28;20233;-73
2023/09/30 02:09:08;;;;;;;17.23;5.63;;;;;;;;;;4969989;28;20231;-73
2023/09/30 02:11:42;;;;;;;11.57;5.10;;;;;;;;;;4967134;28;20218;-73
2023/09/30 02:14:07;;;;;;;7.50;4.37;;;;;;;;;;4964976;28;20235;-73
2023/09/30 02:16:38;;;;;;;10.40;4.93;;;;;;;;;;4945828;28;20223;-73
2023/09/30 02:19:04;;;;;;;15.10;5.47;;;;;;;;;;4967896;28;20245;-73
2023/09/30 02:21:32;;;;;;;12.50;5.53;;;;;;;;;;4985332;28;20902;-73
2023/09/30 02:24:00;;;;;;;11.47;5.03;;;;;;;;;;4974987;28;20234;-73
2023/09/30 02:26:27;;;;;;;15.57;5.30;;;;;;;;;;4990771;28;20251;-74
2023/09/30 02:28:54;;;;;;;14.40;5.23;;;;;;;;;;4969147;28;20226;-74
2023/09/30 02:31:23;;;;;;;11.23;5.20;;;;;;;;;;4975693;28;20214;-74
2023/09/30 02:33:51;;;;;;;11.13;5.50;;;;;;;;;;4971685;28;20700;-73
2023/09/30 02:36:19;;;;;;;10.90;5.30;;;;;;;;;;4961904;28;20223;-74
2023/09/30 02:38:50;;;;;;;21.60;5.60;;;;;;;;;;4978162;28;20237;-73
2023/09/30 02:41:17;;;;;;;15.03;5.00;;;;;;;;;;4960378;28;20305;-73
2023/09/30 02:43:49;;;;;;;10.53;5.40;;;;;;;;;;4948785;28;20607;-74
2023/09/30 02:46:15;;;;;;;13.33;5.53;;;;;;;;;;4966497;28;20281;-73
2023/09/30 02:48:41;;;;;;;12.93;4.90;;;;;;;;;;4945600;28;20708;-75
2023/09/30 02:51:10;;;;;;;11.43;5.00;;;;;;;;;;4936420;28;20771;-73
2023/09/30 02:53:38;;;;;;;10.90;5.43;;;;;;;;;;4962888;28;20230;-74
2023/09/30 02:56:04;;;;;;;10.23;4.80;;;;;;;;;;4976712;28;20704;-74
2023/09/30 02:58:32;;;;;;;12.67;4.97;;;;;;;;;;4960919;28;20214;-73
2023/09/30 03:00:59;;;;;;;13.43;5.70;;;;;;;;;;4944344;28;20257;-73
2023/09/30 03:03:25;;;;;;;12.00;5.00;;;;;;;;;;4976461;28;20209;-72
2023/09/30 03:05:57;;;;;;;12.13;4.80;;;;;;;;;;4963730;28;20255;-73
2023/09/30 03:08:25;;;;;;;14.37;5.30;;;;;;;;;;4968891;28;20257;-72
2023/09/30 03:10:52;;;;;;;10.53;5.13;;;;;;;;;;4973280;28;20242;-73
2023/09/30 03:13:21;;;;;;;14.53;5.87;;;;;;;;;;4968041;28;20237;-72
2023/09/30 03:15:49;;;;;;;13.23;5.57;;;;;;;;;;4949096;28;20234;-73
2023/09/30 03:18:26;;;;;;;13.70;5.70;;;;;;;;;;4978196;28;20254;-73
2023/09/30 03:20:56;;;;;;;11.10;5.10;;;;;;;;;;4968633;28;20224;-73
2023/09/30 03:23:28;;;;;;;15.10;5.20;;;;;;;;;;4960473;28;20705;-73
2023/09/30 03:25:59;;;;;;;10.47;5.40;;;;;;;;;;4971724;28;20238;-73
2023/09/30 03:28:29;;;;;;;18.90;5.80;;;;;;;;;;4961277;28;20223;-72
2023/09/30 03:31:04;;;;;;;12.43;5.17;;;;;;;;;;4983723;28;20224;-73
2023/09/30 03:33:32;;;;;;;12.80;5.67;;;;;;;;;;4995791;28;20230;-73
2023/09/30 03:36:00;;;;;;;13.03;5.10;;;;;;;;;;4979832;28;20225;-73
2023/09/30 03:38:26;;;;;;;8.33;4.83;;;;;;;;;;4971662;28;20222;-73
2023/09/30 03:40:54;;;;;;;12.53;5.03;;;;;;;;;;4988104;28;20313;-73
2023/09/30 03:43:23;;;;;;;14.53;5.77;;;;;;;;;;4968000;28;20209;-73
2023/09/30 03:45:48;;;;;;;12.30;5.27;;;;;;;;;;4977621;28;20222;-73
2023/09/30 03:48:14;;;;;;;12.70;5.20;;;;;;;;;;4969613;28;20897;-73
2023/09/30 03:50:39;;;;;;;11.07;5.37;;;;;;;;;;4976810;28;20230;-73
2023/09/30 03:53:07;;;;;;;14.57;5.60;;;;;;;;;;4958184;28;20685;-74
2023/09/30 03:55:36;;;;;;;16.60;5.87;;;;;;;;;;4961328;28;20832;-73
2023/09/30 03:58:04;;;;;;;9.87;5.13;;;;;;;;;;4962405;28;20223;-73
2023/09/30 04:04:18;;;;;;;11.97;5.23;;;;;;;;;;4958110;28;20221;-73
2023/09/30 04:06:43;;;;;;;12.37;5.27;;;;;;;;;;4960934;28;20226;-73
2023/09/30 04:09:14;;;;;;;19.80;6.03;;;;;;;;;;4961053;28;21018;-73
2023/09/30 04:11:42;;;;;;;12.87;4.73;;;;;;;;;;4974953;28;20225;-73
2023/09/30 04:14:10;;;;;;;15.33;5.93;;;;;;;;;;4965017;28;20226;-74
2023/09/30 04:16:37;;;;;;;13.63;5.77;;;;;;;;;;4945342;28;20731;-73
2023/09/30 04:19:03;;;;;;;14.53;5.27;;;;;;;;;;4954331;28;20226;-73
2023/09/30 04:21:34;;;;;;;11.03;5.37;;;;;;;;;;4975650;28;20215;-73
2023/09/30 04:24:04;;;;;;;17.03;5.73;;;;;;;;;;4980594;28;20276;-73
2023/09/30 04:26:32;;;;;;;12.00;5.23;;;;;;;;;;4984714;28;20236;-73
2023/09/30 04:28:57;;;;;;;9.43;5.30;;;;;;;;;;4979890;28;20223;-73
2023/09/30 04:31:28;;;;;;;13.77;5.60;;;;;;;;;;4972722;28;20234;-73
2023/09/30 04:33:53;;;;;;;10.60;5.33;;;;;;;;;;4977096;28;20226;-73
2023/09/30 04:36:20;;;;;;;18.53;5.90;;;;;;;;;;4977074;28;20222;-73
2023/09/30 04:38:48;;;;;;;11.20;5.17;;;;;;;;;;4966670;28;20238;-73
2023/09/30 04:41:14;;;;;;;15.37;5.70;;;;;;;;;;4958079;28;20223;-72
2023/09/30 04:43:43;;;;;;;11.20;5.40;;;;;;;;;;4963578;28;20226;-73
2023/09/30 04:46:12;;;;;;;13.43;5.23;;;;;;;;;;4960248;28;20970;-73
2023/09/30 04:48:38;;;;;;;14.07;5.73;;;;;;;;;;4974783;28;20233;-73
2023/09/30 04:51:06;;;;;;;15.43;5.03;;;;;;;;;;4959416;28;20222;-73
2023/09/30 04:53:33;;;;;;;12.20;5.33;;;;;;;;;;4966742;28;20234;-73
2023/09/30 04:56:04;;;;;;;14.73;5.17;;;;;;;;;;4966163;28;20699;-73
2023/09/30 04:58:30;;;;;;;12.77;6.03;;;;;;;;;;4959371;28;20230;-72
2023/09/30 05:00:58;;;;;;;14.53;5.70;;;;;;;;;;4958517;28;20643;-73
2023/09/30 05:03:30;;;;;;;14.30;6.00;;;;;;;;;;4971334;28;20231;-73
2023/09/30 05:05:57;;;;;;;14.77;6.07;;;;;;;;;;4957596;28;20311;-72
2023/09/30 05:08:24;;;;;;;12.00;5.53;;;;;;;;;;4973251;28;20222;-73
2023/09/30 05:10:49;;;;;;;11.10;5.13;;;;;;;;;;4976996;28;20221;-73
2023/09/30 05:13:18;;;;;;;16.00;5.97;;;;;;;;;;4966620;28;20727;-73
2023/09/30 05:15:43;;;;;;;13.23;5.80;;;;;;;;;;4960729;28;20234;-74
2023/09/30 05:18:11;;;;;;;11.50;5.50;;;;;;;;;;4949965;28;20221;-73
2023/09/30 05:20:38;;;;;;;14.30;5.37;;;;;;;;;;4951123;28;20237;-73
2023/09/30 05:23:04;;;;;;;17.13;6.17;;;;;;;;;;4967083;28;20281;-73
2023/09/30 05:25:30;;;;;;;15.73;6.23;;;;;;;;;;4957216;28;20234;-73
2023/09/30 05:27:57;;;;;;;14.93;6.27;;;;;;;;;;4968639;28;20286;-73
2023/09/30 05:30:25;;;;;;;14.20;6.30;;;;;;;;;;4956305;28;20779;-73
2023/09/30 05:32:52;;;;;;;12.90;6.87;;;;;;;;;;4958872;28;20214;-73
2023/09/30 05:35:22;;;;;;;12.37;5.47;;;;;;;;;;4941730;28;20229;-73
2023/09/30 05:37:52;;;;;;;11.07;5.93;;;;;;;;;;4962921;28;20310;-73
2023/09/30 05:40:21;;;;;;;19.60;6.47;;;;;;;;;;4956928;28;20228;-73
2023/09/30 05:42:49;;;;;;;13.67;6.03;;;;;;;;;;4975609;28;20233;-73
2023/09/30 05:45:17;;;;;;;11.07;5.57;;;;;;;;;;4950488;28;20273;-72
2023/09/30 05:47:44;;;;;;;12.57;6.27;;;;;;;;;;4966787;28;20254;-73
2023/09/30 05:50:14;;;;;;;12.67;5.83;;;;;;;;;;4963296;28;20238;-73
2023/09/30 05:52:43;;;;;;;10.90;5.50;;;;;;;;;;4966442;28;20282;-73
2023/09/30 05:55:09;;;;;;;14.87;6.07;;;;;;;;;;4972280;28;20682;-73
2023/09/30 05:57:36;;;;;;;19.80;6.00;;;;;;;;;;4961350;28;20258;-72
2023/09/30 06:00:11;;;;;;;13.43;5.93;;;;;;;;;;4938958;28;20249;-73
2023/09/30 06:02:40;;;;;;;13.83;6.17;;;;;;;;;;4959899;28;20230;-73
2023/09/30 06:05:06;;;;;;;11.60;5.97;;;;;;;;;;4960105;28;20650;-72
2023/09/30 06:07:34;;;;;;;12.37;5.80;;;;;;;;;;4960035;28;20254;-73
2023/09/30 06:10:03;;;;;;;12.47;6.30;;;;;;;;;;4962195;28;20221;-73
2023/09/30 06:12:33;;;;;;;11.70;6.23;;;;;;;;;;4955060;28;20301;-73
2023/09/30 06:15:01;;;;;;;13.10;5.73;;;;;;;;;;4980733;28;20314;-73
2023/09/30 06:17:27;;;;;;;12.93;6.23;;;;;;;;;;4958204;28;20725;-74
2023/09/30 06:19:52;;;;;;;15.20;5.63;;;;;;;;;;4970877;28;20229;-74
2023/09/30 06:22:18;;;;;;;11.60;6.10;;;;;;;;;;4972702;28;20223;-74
2023/09/30 06:24:43;;;;;;;16.13;5.67;;;;;;;;;;4969693;28;20292;-75
2023/09/30 06:27:13;;;;;;;9.53;5.57;;;;;;;;;;4946085;28;20296;-74
2023/09/30 06:29:40;;;;;;;15.73;5.90;;;;;;;;;;4969753;28;20234;-74
2023/09/30 06:32:08;;;;;;;12.70;5.43;;;;;;;;;;4944933;28;20217;-74
2023/09/30 06:34:34;;;;;;;12.50;5.93;;;;;;;;;;4961098;28;20233;-74
2023/09/30 06:37:02;;;;;;;19.33;6.17;;;;;;;;;;4977498;28;20225;-74
2023/09/30 06:39:32;;;;;;;11.73;5.17;;;;;;;;;;4964343;28;20218;-74
2023/09/30 06:42:00;;;;;;;9.97;5.17;;;;;;;;;;4963529;28;20288;-74
2023/09/30 06:44:28;;;;;;;12.10;5.60;;;;;;;;;;4952955;28;20317;-74
2023/09/30 06:46:54;;;;;;;15.87;5.87;;;;;;;;;;4971132;28;20670;-75
2023/09/30 06:49:22;;;;;;;12.70;5.57;;;;;;;;;;4961118;28;20221;-74
2023/09/30 06:51:47;;;;;;;13.00;5.17;;;;;;;;;;4952308;28;20238;-74
2023/09/30 06:54:13;;;;;;;7.83;4.57;;;;;;;;;;4968884;28;20234;-75
2023/09/30 06:56:41;;;;;;;11.43;5.50;;;;;;;;;;4971095;28;20245;-73
2023/09/30 06:59:08;;;;;;;12.70;5.13;;;;;;;;;;4968741;28;20700;-74
2023/09/30 07:01:36;;;;;;;15.17;5.50;;;;;;;;;;4977230;28;20225;-73
2023/09/30 07:04:06;;;;;;;10.20;5.47;;;;;;;;;;4969089;28;20594;-73
2023/09/30 07:06:34;;;;;;;10.73;5.10;;;;;;;;;;4966774;28;20289;-74
2023/09/30 07:08:59;;;;;;;15.63;5.03;;;;;;;;;;4974562;28;20230;-74
2023/09/30 07:11:32;;;;;;;9.47;5.30;;;;;;;;;;4958188;28;20284;-74
2023/09/30 07:14:01;;;;;;;11.77;5.03;;;;;;;;;;4969938;28;20317;-74
2023/09/30 07:16:26;;;;;;;11.03;5.10;;;;;;;;;;4948216;28;20262;-73
2023/09/30 07:18:52;;;;;;;11.10;4.57;;;;;;;;;;4963170;28;20226;-74
2023/09/30 07:21:19;;;;;;;8.97;4.40;;;;;;;;;;4952458;28;20221;-74
2023/09/30 07:23:45;;;;;;;8.87;4.27;;;;;;;;;;4978339;28;20232;-75
2023/09/30 07:26:12;;;;;;;9.57;4.07;;;;;;;;;;4957470;28;20222;-74
2023/09/30 07:28:41;;;;;;;8.83;4.33;;;;;;;;;;4952540;28;20258;-73
2023/09/30 07:31:06;;;;;;;12.60;4.37;;;;;;;;;;4953541;28;20227;-74
2023/09/30 07:33:37;;;;;;;9.97;3.70;;;;;;;;;;4979539;28;20290;-73
2023/09/30 07:36:08;;;;;;;13.00;3.83;;;;;;;;;;4968898;28;20237;-74
2023/09/30 07:38:36;;;;;;;7.53;3.63;;;;;;;;;;4970116;28;20623;-74
2023/09/30 07:41:05;;;;;;;8.77;4.07;;;;;;;;;;4951269;28;20221;-73
2023/09/30 07:43:33;;;;;;;12.23;3.80;;;;;;;;;;4999200;28;20225;-74
2023/09/30 07:46:09;;;;;;;6.57;3.83;;;;;;;;;;4987023;28;20226;-74
2023/09/30 07:48:35;;;;;;;15.00;3.70;;;;;;;;;;4991633;28;20218;-74
2023/09/30 07:51:04;;;;;;;7.93;3.73;;;;;;;;;;4968252;28;20218;-74
2023/09/30 07:53:29;;;;;;;7.30;3.33;;;;;;;;;;4965835;28;20222;-74
2023/09/30 07:55:56;;;;;;;7.77;3.30;;;;;;;;;;4949504;28;20241;-74
2023/09/30 07:58:29;;;;;;;6.80;3.33;;;;;;;;;;4960637;28;20700;-74
2023/09/30 08:00:57;;;;;;;9.38;3.50;;;;;;;;;;4968026;28;20214;-74
2023/09/30 08:03:22;;;;;;;7.55;3.10;;;;;;;;;;4961577;28;20202;-74
2023/09/30 08:05:50;;;;;;;6.63;3.43;;;;;;;;;;4978499;28;20281;-73
2023/09/30 08:08:18;;;;;;;14.65;3.58;;;;;;;;;;4977338;28;20253;-73
2023/09/30 08:10:46;;;;;;;6.57;2.73;;;;;;;;;;4974578;28;20226;-73
2023/09/30 08:13:12;;;;;;;5.47;2.70;;;;;;;;;;4965819;28;20218;-74
2023/09/30 08:15:37;;;;;;;5.55;2.72;;;;;;;;;;4960073;28;20241;-73
2023/09/30 08:18:05;;;;;;;9.70;2.95;;;;;;;;;;4963343;28;20226;-75
2023/09/30 08:20:31;;;;;;;11.02;3.70;;;;;;;;;;4961475;28;20430;-74
2023/09/30 08:22:59;;;;;;;11.77;3.60;;;;;;;;;;4975194;28;20253;-73
2023/09/30 08:25:27;;;;;;;6.93;3.20;;;;;;;;;;4925459;28;20215;-74
2023/09/30 08:27:54;;;;;;;9.13;3.60;;;;;;;;;;4966558;28;20223;-74
2023/09/30 08:30:25;;;;;;;5.80;2.58;;;;;;;;;;4973037;28;26515;-74
2023/09/30 08:32:53;;;;;;;7.53;2.75;;;;;;;;;;4960946;28;20265;-73
2023/09/30 08:35:21;;;;;;;8.57;2.85;;;;;;;;;;4956309;28;20351;-73
2023/09/30 08:37:49;;;;;;;6.55;3.08;;;;;;;;;;4958627;28;20241;-74
2023/09/30 08:40:25;;;;;;;6.57;2.70;;;;;;;;;;4966095;28;20223;-74
2023/09/30 08:42:52;;;;;;;7.20;2.70;;;;;;;;;;4951179;28;20313;-74
2023/09/30 08:45:17;;;;;;;7.18;2.90;;;;;;;;;;4966807;28;20724;-74
2023/09/30 08:47:49;;;;;;;6.15;2.88;;;;;;;;;;4968301;28;20218;-74
2023/09/30 08:50:18;;;;;;;11.40;3.30;;;;;;;;;;4963639;28;20234;-73
2023/09/30 08:52:44;;;;;;;5.95;2.60;;;;;;;;;;4965767;28;20230;-74
2023/09/30 08:55:10;;;;;;;8.60;3.10;;;;;;;;;;4974278;28;20239;-73
2023/09/30 08:57:41;;;;;;;8.70;2.75;;;;;;;;;;4961535;28;20231;-73
2023/09/30 09:00:07;;;;;;;6.47;2.65;;;;;;;;;;4949825;28;20285;-73
2023/09/30 09:02:36;;;;;;;9.90;2.83;;;;;;;;;;4982243;28;20226;-73
2023/09/30 09:05:02;;;;;;;6.05;2.97;;;;;;;;;;4960357;28;20217;-74
2023/09/30 09:07:27;;;;;;;6.10;3.03;;;;;;;;;;4968014;28;20230;-73
2023/09/30 09:10:05;;;;;;;7.25;3.05;;;;;;;;;;4972658;28;20229;-73
2023/09/30 09:12:34;;;;;;;10.85;2.97;;;;;;;;;;4977263;28;20706;-74
2023/09/30 09:15:02;;;;;;;10.13;2.78;;;;;;;;;;4961967;28;20225;-73
2023/09/30 09:17:44;;;;;;;8.00;2.30;;;;;;;;;;4959624;28;20248;-73
2023/09/30 09:20:14;;;;;;;6.07;2.45;;;;;;;;;;4942546;28;20285;-73
2023/09/30 09:22:40;;;;;;;5.78;2.72;;;;;;;;;;4961173;28;20218;-73
2023/09/30 09:25:10;;;;;;;9.65;3.03;;;;;;;;;;4974742;28;20230;-73
2023/09/30 09:27:38;;;;;;;5.70;2.47;;;;;;;;;;4959536;28;20391;-73
2023/09/30 09:30:19;;;;;;;8.15;2.75;;;;;;;;;;4957511;28;20320;-73
2023/09/30 09:33:04;;;;;;;13.55;2.67;;;;;;;;;;4975000;28;20227;-72
2023/09/30 09:35:33;;;;;;;6.95;2.70;;;;;;;;;;4958765;28;20648;-73
2023/09/30 09:38:06;;;;;;;10.07;2.58;;;;;;;;;;4959291;28;20232;-73
2023/09/30 09:40:40;;;;;;;4.45;2.25;;;;;;;;;;4952595;28;20218;-74
2023/09/30 09:43:09;;;;;;;6.88;2.60;;;;;;;;;;4964551;28;20246;-72
2023/09/30 09:45:38;;;;;;;8.30;2.30;;;;;;;;;;4982290;28;20269;-73
2023/09/30 09:48:06;;;;;;;7.68;2.55;;;;;;;;;;4978832;28;20234;-73
2023/09/30 09:50:32;;;;;;;9.32;2.78;;;;;;;;;;4970369;28;20233;-73
2023/09/30 09:53:00;;;;;;;8.52;2.50;;;;;;;;;;4964775;28;20231;-72
2023/09/30 09:55:28;;;;;;;9.80;2.50;;;;;;;;;;4969158;28;20227;-73
2023/09/30 09:57:56;;;;;;;4.53;2.47;;;;;;;;;;4964814;28;20244;-73
2023/09/30 10:00:25;;;;;;;12.90;2.70;;;;;;;;;;4969833;28;20222;-73
2023/09/30 10:02:56;;;;;;;8.68;2.47;;;;;;;;;;4962187;28;20330;-73
2023/09/30 10:05:22;;;;;;;7.57;2.65;;;;;;;;;;4970207;28;20218;-73
2023/09/30 10:07:51;;;;;;;9.60;2.85;;;;;;;;;;4956606;28;20313;-74
2023/09/30 10:10:22;;;;;;;4.90;2.40;;;;;;;;;;4964387;28;20901;-73
2023/09/30 10:12:49;;;;;;;6.60;2.25;;;;;;;;;;4964068;28;20597;-73
2023/09/30 10:15:28;;;;;;;4.82;2.22;;;;;;;;;;4968547;28;20313;-74
2023/09/30 10:18:04;;;;;;;9.70;2.58;;;;;;;;;;4961103;28;20692;-73
2023/09/30 10:20:34;;;;;;;6.20;2.28;;;;;;;;;;4960676;28;20226;-73
2023/09/30 10:23:21;;;;;;;6.68;2.38;;;;;;;;;;4960712;28;20226;-71
2023/09/30 10:25:49;;;;;;;6.35;2.22;;;;;;;;;;4997620;28;20314;-73
2023/09/30 10:28:34;;;;;;;6.85;2.53;;;;;;;;;;4996412;28;20525;-71
2023/09/30 10:31:19;;;;;;;5.60;2.28;;;;;;;;;;4954619;28;20609;-72
2023/09/30 10:34:00;;;;;;;6.50;2.38;;;;;;;;;;5000308;28;20320;-74
2023/09/30 10:36:39;;;;;;;6.65;1.98;;;;;;;;;;4974341;28;20221;-73
2023/09/30 10:39:08;;;;;;;6.28;2.58;;;;;;;;;;4954564;28;20322;-73
2023/09/30 10:41:47;;;;;;;7.15;2.05;;;;;;;;;;4965080;28;20225;-73
2023/09/30 10:44:29;;;;;;;3.95;2.38;;;;;;;;;;4969129;28;20274;-73
2023/09/30 10:46:57;;;;;;;5.00;2.10;;;;;;;;;;4963257;28;20241;-72
2023/09/30 10:49:22;;;;;;;6.85;2.03;;;;;;;;;;4969926;28;20732;-73
2023/09/30 10:51:53;;;;;;;5.10;1.90;;;;;;;;;;4959869;28;20222;-72
2023/09/30 10:54:26;;;;;;;6.93;2.15;;;;;;;;;;4945755;28;20226;-73
2023/09/30 10:56:58;;;;;;;7.45;2.15;;;;;;;;;;4943530;28;20218;-72
2023/09/30 10:59:34;;;;;;;8.43;2.05;;;;;;;;;;4970230;28;20334;-72
2023/09/30 11:02:08;;;;;;;8.05;2.25;;;;;;;;;;4975559;28;20726;-73
2023/09/30 11:04:49;;;;;;;4.70;2.28;;;;;;;;;;4968482;28;20245;-72
2023/09/30 11:07:22;;;;;;;4.53;1.80;;;;;;;;;;4944665;28;20214;-73
2023/09/30 11:09:50;;;;;;;4.05;1.88;;;;;;;;;;4961658;28;20254;-73
2023/09/30 11:12:16;;;;;;;3.65;1.90;;;;;;;;;;4951030;28;20218;-74
2023/09/30 11:14:44;;;;;;;4.95;1.80;;;;;;;;;;4964968;28;20260;-74
2023/09/30 11:17:09;;;;;;;3.47;1.90;;;;;;;;;;4978849;28;20230;-73
2023/09/30 11:19:48;;;;;;;8.32;2.20;;;;;;;;;;4995025;28;20283;-73
2023/09/30 11:22:18;;;;;;;3.83;1.77;;;;;;;;;;4981945;28;20253;-72
2023/09/30 11:24:48;;;;;;;2.88;1.75;;;;;;;;;;4957162;28;20217;-73
2023/09/30 11:27:24;;;;;;;4.75;2.20;;;;;;;;;;4961249;28;20230;-72
2023/09/30 11:29:52;;;;;;;8.35;2.30;;;;;;;;;;4983572;28;20723;-73
2023/09/30 11:32:26;;;;;;;4.63;1.60;;;;;;;;;;4979169;28;20225;-72
2023/09/30 11:34:52;;;;;;;4.15;1.73;;;;;;;;;;4987736;28;20603;-73
2023/09/30 11:37:21;;;;;;;6.38;2.10;;;;;;;;;;4961574;28;20270;-72
2023/09/30 11:39:47;;;;;;;4.97;2.20;;;;;;;;;;4973075;28;20244;-73
2023/09/30 11:42:19;;;;;;;3.35;1.77;;;;;;;;;;4993861;28;20213;-73
2023/09/30 11:44:51;;;;;;;5.05;1.65;;;;;;;;;;4984295;28;20937;-73
2023/09/30 11:47:17;;;;;;;4.85;2.08;;;;;;;;;;4979213;28;20222;-72
2023/09/30 11:49:48;;;;;;;3.78;1.52;;;;;;;;;;4959260;28;20221;-73
2023/09/30 11:52:15;;;;;;;4.47;1.75;;;;;;;;;;4976485;28;20241;-72
2023/09/30 11:54:44;;;;;;;5.20;2.50;;;;;;;;;;4967261;28;20226;-73
2023/09/30 11:57:11;;;;;;;4.43;2.17;;;;;;;;;;4973129;28;20253;-74
2023/09/30 11:59:41;;;;;;;3.50;1.92;;;;;;;;;;4961727;28;20234;-74
2023/09/30 12:02:09;;;;;;;6.88;2.15;;;;;;;;;;4968048;28;20230;-72
2023/09/30 12:04:39;;;;;;;14.10;2.03;;;;;;;;;;4959295;28;20282;-74
2023/09/30 12:07:08;;;;;;;3.75;1.85;;;;;;;;;;4952055;28;20242;-72
2023/09/30 12:09:39;;;;;;;6.47;1.98;;;;;;;;;;4978454;28;20281;-73
2023/09/30 12:12:11;;;;;;;6.32;2.03;;;;;;;;;;4962741;28;20226;-73
2023/09/30 12:14:39;;;;;;;5.35;1.70;;;;;;;;;;4952435;28;20231;-73
2023/09/30 12:17:10;;;;;;;3.65;1.58;;;;;;;;;;4994072;28;20221;-72
2023/09/30 12:19:40;;;;;;;5.68;2.33;;;;;;;;;;4961092;28;20230;-72
2023/09/30 12:22:09;;;;;;;7.82;2.17;;;;;;;;;;4967929;28;20704;-73
2023/09/30 12:24:37;;;;;;;6.43;1.85;;;;;;;;;;4965816;28;20230;-73
2023/09/30 12:27:08;;;;;;;3.85;1.70;;;;;;;;;;4992050;28;20245;-74
2023/09/30 12:29:38;;;;;;;5.35;1.80;;;;;;;;;;4981961;28;20331;-73
2023/09/30 12:32:05;;;;;;;6.28;2.10;;;;;;;;;;4981411;28;20249;-73
2023/09/30 12:34:33;;;;;;;4.90;1.88;;;;;;;;;;4959631;28;20238;-73
2023/09/30 12:37:03;;;;;;;5.22;1.80;;;;;;;;;;4992415;28;20284;-74
2023/09/30 12:39:33;;;;;;;5.18;2.17;;;;;;;;;;4981527;28;20253;-73
2023/09/30 12:42:08;;;;;;;4.90;1.73;;;;;;;;;;4983753;28;20214;-74
2023/09/30 12:44:38;;;;;;;3.97;1.70;;;;;;;;;;4961873;28;20214;-74
2023/09/30 12:47:05;;;;;;;4.30;1.60;;;;;;;;;;4984623;28;20233;-75
2023/09/30 12:49:31;;;;;;;3.63;1.70;;;;;;;;;;4992066;28;20230;-73
2023/09/30 12:51:58;;;;;;;9.68;2.30;;;;;;;;;;4972637;28;20225;-73
2023/09/30 12:54:25;;;;;;;11.15;2.28;;;;;;;;;;4967325;28;20235;-74
2023/09/30 12:56:54;;;;;;;3.78;1.80;;;;;;;;;;4975393;28;20282;-73
2023/09/30 12:59:25;;;;;;;5.28;1.98;;;;;;;;;;4964005;28;20223;-74
2023/09/30 13:01:53;;;;;;;6.50;1.70;;;;;;;;;;4978419;28;20297;-74
2023/09/30 13:04:27;;;;;;;4.57;1.90;;;;;;;;;;4993467;28;20658;-72
2023/09/30 13:06:52;;;;;;;3.60;1.80;;;;;;;;;;4983296;28;20277;-73
2023/09/30 13:09:22;;;;;;;4.18;1.85;;;;;;;;;;4991630;28;20721;-73
2023/09/30 13:11:50;;;;;;;4.00;1.90;;;;;;;;;;4968396;28;20787;-73
2023/09/30 13:14:17;;;;;;;5.03;1.67;;;;;;;;;;4959368;28;20230;-73
2023/09/30 13:16:46;;;;;;;4.95;1.60;;;;;;;;;;4966925;28;20226;-73
2023/09/30 13:19:21;;;;;;;5.25;1.70;;;;;;;;;;4962013;28;20226;-74
2023/09/30 13:21:47;;;;;;;5.15;1.85;;;;;;;;;;4970800;28;20610;-73
2023/09/30 13:24:13;;;;;;;4.50;1.95;;;;;;;;;;4978072;28;20236;-72
2023/09/30 13:26:38;;;;;;;4.38;1.80;;;;;;;;;;4961629;28;20704;-73
2023/09/30 13:29:09;;;;;;;11.73;2.30;;;;;;;;;;4961801;28;20229;-73
2023/09/30 13:31:40;;;;;;;4.38;1.95;;;;;;;;;;4990923;28;20245;-73
2023/09/30 13:34:05;;;;;;;4.00;1.50;;;;;;;;;;4969743;28;20241;-73
2023/09/30 13:36:36;;;;;;;2.50;1.60;;;;;;;;;;4978145;28;20214;-73
2023/09/30 13:39:12;;;;;;;9.07;1.85;;;;;;;;;;4990705;28;20215;-73
2023/09/30 13:41:40;;;;;;;3.97;1.60;;;;;;;;;;4976828;28;20939;-73
2023/09/30 13:44:08;;;;;;;4.10;1.65;;;;;;;;;;4956050;28;20906;-73
2023/09/30 13:46:33;;;;;;;4.65;1.80;;;;;;;;;;4952716;28;20226;-72
2023/09/30 13:49:01;;;;;;;7.28;1.83;;;;;;;;;;4981851;28;20578;-73
2023/09/30 13:51:34;;;;;;;4.47;1.50;;;;;;;;;;4952765;28;20218;-73
2023/09/30 13:53:59;;;;;;;6.05;1.70;;;;;;;;;;4987056;28;20273;-73
2023/09/30 13:56:25;;;;;;;2.20;1.60;;;;;;;;;;4948496;28;20699;-73
2023/09/30 13:58:57;;;;;;;6.97;1.90;;;;;;;;;;4978717;28;20254;-73
2023/09/30 14:01:23;;;;;;;3.53;1.70;;;;;;;;;;4945363;28;20230;-74
2023/09/30 14:03:55;;;;;;;3.10;1.45;;;;;;;;;;4987523;28;20237;-74
2023/09/30 14:06:20;;;;;;;4.82;1.52;;;;;;;;;;4985868;28;20225;-73
2023/09/30 14:08:49;;;;;;;4.00;1.67;;;;;;;;;;4970329;28;20281;-74
2023/09/30 14:11:15;;;;;;;5.30;1.48;;;;;;;;;;4970659;28;20234;-73
2023/09/30 14:13:40;;;;;;;5.35;1.73;;;;;;;;;;4993525;28;20237;-74
2023/09/30 14:16:06;;;;;;;5.57;1.70;;;;;;;;;;4960904;28;20612;-73
2023/09/30 14:18:36;;;;;;;1.95;1.30;;;;;;;;;;4994871;28;20563;-73
2023/09/30 14:21:06;;;;;;;5.05;1.70;;;;;;;;;;4970030;28;20305;-74
2023/09/30 14:23:32;;;;;;;3.67;1.45;;;;;;;;;;4977033;28;20897;-73
2023/09/30 14:26:00;;;;;;;5.90;1.75;;;;;;;;;;4948042;28;20222;-74
2023/09/30 14:28:33;;;;;;;4.63;1.40;;;;;;;;;;4980287;28;20231;-74
2023/09/30 14:31:04;;;;;;;3.92;1.45;;;;;;;;;;4956512;28;20234;-73
2023/09/30 14:33:30;;;;;;;3.13;1.50;;;;;;;;;;4971356;28;20909;-74
2023/09/30 14:35:56;;;;;;;5.32;1.73;;;;;;;;;;4977629;28;20270;-75
2023/09/30 14:38:22;;;;;;;4.68;1.90;;;;;;;;;;4971640;28;20234;-73
2023/09/30 14:40:50;;;;;;;5.63;1.50;;;;;;;;;;4975591;28;20219;-72
2023/09/30 14:43:18;;;;;;;2.78;1.48;;;;;;;;;;4969581;28;20273;-73
2023/09/30 14:45:43;;;;;;;3.85;1.50;;;;;;;;;;4957596;28;20668;-74
2023/09/30 14:48:11;;;;;;;5.68;1.80;;;;;;;;;;4969883;28;20218;-73